Terminal Aerodrome Forecast
Issued by NWS

Home | Current Version | Previous Version | Graphics & Text | Print | Product List | Glossary On
Versions: 1 2 3 4 5 6 7 8 9 10 11 12 13 14 15 16 17 18 19 20 21 22
000
FTUS43 KOAX 011124
TAFCDR
TAF
KCDR 011124Z 0112/0212 VRB03KT P6SM BKN050
     FM011800 33010KT P6SM SCT050
     FM020200 VRB05KT P6SM SCT020 BKN035=

USA.gov is the U.S. government's official web portal to all federal, state and local government web resources and services.